x

Canaveral 20 Nm East Of Cape Canaveral, Fl (41009) Wave Buoy

10:50am - Sun 26th Apr 2015 All times are EDT. -4 hours from GMT.

  • Sig Wave height 2.3ft
  • Swell Direction
  • Peak Period 4s
  • Average Period 4s
  • Wind
    11mph, 13mph gusts
  • Sea Temp 76°f
  • Air Temp 77°f
  • Sea Pressure 1008.9mb
  • Canaveral 20 Nm East Of Cape Canaveral, Fl
  • Canaveral 20 Nm East Of Cape Canaveral, Fl

More Historic Weather Station data

Upgrade to MSW Pro to gain access to the past 30 days of data for over 8000 Wavebouys and Weather Stations around the globe.

Join Pro

Comparision Forecast

View Surf forecast
   
Sun 04/26 10:50am 2.5ft 4s 4s 11 13 mph 1008.9mb 76f 77f
10:20am  -   -   -  11 13 mph 1008.9mb 76f 77f
9:50am 2.5ft 4s 4s 13 16 mph 1008.9mb 76f 77f
9:20am  -   -   -  13 16 mph 1009mb 76f 77f
8:50am 2.5ft 4s 4s 13 16 mph 1008.9mb 76f 76f
8:20am  -   -   -  13 16 mph 1008.7mb 76f 77f
7:50am 3ft 4s 4s 16 18 mph 1008.7mb 76f 76f
7:20am  -   -   -  16 18 mph 1008.2mb 76f 76f
6:50am 3.5ft 4s 4s 18 20 mph 1007.8mb 76f 76f
6:20am  -   -   -  20 25 mph 1007.5mb 76f 76f
5:50am 3.5ft 4s 4s 20 25 mph 1007.1mb 76f 76f
5:20am  -   -   -  22 27 mph 1006.9mb 76f 76f
4:50am 3.5ft 4s 4s 20 25 mph 1006.9mb 76f 76f
4:20am  -   -   -  20 25 mph 1007.1mb 76f 77f
3:50am 3ft 4s 4s 22 27 mph 1007.1mb 76f 77f
3:20am  -   -   -  22 27 mph 1006.9mb 76f 77f
2:50am 3ft 14s 4s 22 27 mph 1007.3mb 76f 77f
2:20am  -   -   -  18 20 mph 1007.6mb 76f 77f
1:50am 3ft 13s 4s 11 13 mph 1008.4mb 76f 77f
1:20am  -   -   -  11 13 mph 1009.3mb 76f 78f
12:50am 3ft 13s 4s 16 18 mph 1010.7mb 76f 78f
12:20am  -   -   -  13 16 mph 1010.5mb 76f 78f
Sat 04/25 11:50pm 2.5ft 4s 4s 13 16 mph 1010.4mb 76f 79f
11:20pm  -   -   -  13 16 mph 1010.4mb 76f 79f
10:50pm 3ft 4s 4s 13
mph
1010.2mb 76f 77f
10:20pm  -   -   -  13 18 mph 1009.9mb 76f 77f
9:50pm 3.5ft 12s 4s 16 18 mph 1009.4mb 76f 77f
9:20pm  -   -   -  16 18 mph 1009.3mb 76f 78f
8:50pm 3ft 4s 4s 18 22 mph 1009.1mb 76f 78f
8:20pm  -   -   -  18 20 mph 1009mb 76f 78f
7:50pm 2.5ft 3s 4s 16 18 mph 1009.4mb 76f 78f
7:20pm  -   -   -  16 18 mph 1009.4mb 76f 78f
6:50pm 2.5ft 14s 4s 13 16 mph 1009.7mb 76f 78f
6:20pm  -   -   -  13 16 mph 1009.9mb 76f 78f
5:50pm 2.5ft 14s 5s 13 16 mph 1009.8mb 76f 78f
5:20pm  -   -   -  11 13 mph 1010mb 76f 78f
4:50pm 2.5ft 9s 4s 13 18 mph 1010.2mb 76f 78f
4:20pm  -   -   -  11 16 mph 1010.7mb 76f 78f
3:50pm 3ft 14s 5s 13 16 mph 1010.7mb 76f 77f
3:20pm  -   -   -  16 18 mph 1011.1mb 76f 77f
2:50pm 3ft 13s 5s 13 16 mph 1011.9mb 76f 77f
2:20pm  -   -   -  13 16 mph 1012.4mb 76f 77f
1:50pm 3ft 14s 5s 13 16 mph 1013mb 76f 77f
1:20pm  -   -   -  13 16 mph 1013.2mb 76f 77f
12:50pm 3ft 9s 6s 13 16 mph 1013.7mb 76f 77f
12:20pm  -   -   -  11 16 mph 1014.2mb 76f 77f
11:20am  -   -   -  9 11 mph 1014.5mb 76f 77f
10:50am 3.5ft 8s 6s 9
mph
1014.2mb 76f 77f
10:20am  -   -   -  9
mph
1014.2mb 76f 77f
9:50am 3.5ft 8s 6s 9 11 mph 1014.1mb 76f 77f
9:20am  -   -   -  9 11 mph 1014.2mb 76f 77f
8:50am 4ft 9s 7s 9 11 mph 1014.1mb 76f 77f
8:20am  -   -   -  9 11 mph 1013.9mb 76f 76f
7:50am 4ft 8s 6s 9 11 mph 1014.2mb 76f 76f
7:20am  -   -   -  9 11 mph 1014mb 76f 76f
6:50am 4.5ft 9s 6s 9 11 mph 1013.9mb 76f 76f
6:20am  -   -   -  11 13 mph 1013.3mb 76f 76f
5:50am 4ft 8s 6s 13
mph
1013mb 76f 76f
5:20am  -   -   -  11 16 mph 1013.1mb 76f 76f
4:50am 3.5ft 7s 6s 11 13 mph 1013.4mb 76f 76f
4:20am  -   -   -  11 13 mph 1013.6mb 76f 76f
3:50am 3.5ft 15s 6s 9 11 mph 1014.1mb 76f 76f
3:20am  -   -   -  11
mph
1014.4mb 76f 76f
2:50am 3.5ft 15s 6s 11 13 mph 1014.3mb 76f 76f
2:20am  -   -   -  11 13 mph 1014.7mb 76f 76f
1:50am 3.5ft 15s 6s 11 13 mph 1015mb 77f 76f
1:20am  -   -   -  13 16 mph 1014.8mb 77f 76f
12:50am 3.5ft 15s 6s 13 16 mph 1015.4mb 77f 76f
12:20am  -   -   -  16 18 mph 1014.4mb 77f 76f
Fri 04/24 11:50pm 3.5ft 15s 6s 11 13 mph 1015.4mb 77f 76f
11:20pm  -   -   -  13 16 mph 1015.8mb 77f 76f
10:50pm 3.5ft 14s 5s 13 16 mph 1015.9mb 77f 76f
10:20pm  -   -   -  16 18 mph 1015.7mb 77f 76f
9:50pm 3.5ft 15s 5s 13 18 mph 1015.6mb 77f 76f
9:20pm  -   -   -  13 16 mph 1015.7mb 77f 76f
8:50pm 3.5ft 14s 5s 13 16 mph 1015.4mb 77f 77f
8:20pm  -   -   -  11 13 mph 1015.1mb 77f 77f
7:50pm 3.5ft 6s 5s 13 16 mph 1015mb 77f 77f
7:20pm  -   -   -  11 16 mph 1015.1mb 77f 77f
6:50pm 3ft 14s 5s 11 13 mph 1015.2mb 77f 77f
6:20pm  -   -   -  13 16 mph 1015mb 77f 77f
5:50pm 3.5ft 13s 5s 13
mph
1015mb 77f 77f
5:20pm  -   -   -  13 16 mph 1015mb 77f 77f
4:50pm 3ft 14s 5s 13 16 mph 1015.1mb 77f 77f
4:20pm  -   -   -  13 16 mph 1014.8mb 77f 77f
3:50pm 2.5ft 14s 6s 16 18 mph 1014.9mb 77f 77f
3:20pm  -   -   -  16 18 mph 1015mb 77f 77f
2:50pm 2.5ft 15s 7s 13 18 mph 1015mb 77f 78f
2:20pm  -   -   -  9 11 mph 1015.1mb 77f 77f
1:50pm 2.5ft 14s 6s 9 11 mph 1015.4mb 76f 76f
1:20pm  -   -   -  9
mph
1015.3mb 76f 76f
12:50pm 2.5ft 12s 5s 7 9 mph 1015.4mb 76f 75f
12:20pm  -   -   -  11 13 mph 1015.8mb 76f 75f
11:50am 2.5ft 15s 5s 11 13 mph 1016mb 76f 75f
11:20am  -   -   -  11 13 mph 1016mb 76f 75f
10:50am 2.5ft 15s 5s 11 13 mph 1015.8mb 76f 75f
10:20am  -   -   -  11 13 mph 1015.3mb 76f 75f
9:50am 2.5ft 13s 5s 13 16 mph 1015.2mb 76f 75f
9:20am  -   -   -  16 18 mph 1014.6mb 76f 75f
8:50am 2.5ft 14s 5s 13 16 mph 1014.4mb 76f 75f
8:20am  -   -   -  13 16 mph 1014.2mb 76f 75f
7:50am 2.5ft 13s 4s 13 16 mph 1013.9mb 76f 75f
7:20am  -   -   -  16 18 mph 1013.7mb 76f 75f
6:50am 2.5ft 14s 4s 13 16 mph 1013.6mb 76f 75f
6:20am  -   -   -  13 16 mph 1013.2mb 76f 75f
5:50am 2.5ft 14s 5s 13 18 mph 1013.1mb 76f 75f
5:20am  -   -   -  13 16 mph 1012.8mb 76f 75f
4:50am 2.5ft 13s 4s 13 18 mph 1012.7mb 76f 76f
4:20am  -   -   -  13 16 mph 1012.6mb 76f 76f
3:50am 2.5ft 14s 4s 16 18 mph 1012.8mb 76f 76f
3:20am  -   -   -  16 20 mph 1012.7mb 76f 76f
2:50am 2.5ft 14s 4s 16 18 mph 1012.6mb 76f 76f
2:20am  -   -   -  16 18 mph 1013mb 76f 76f
1:50am 2.5ft 15s 4s 13 16 mph 1013.3mb 76f 76f
1:20am  -   -   -  16 20 mph 1013.1mb 76f 76f
12:50am 2ft 15s 5s 16 20 mph 1013.4mb 76f 76f
12:20am  -   -   -  13 16 mph 1013.6mb 76f 76f
Thu 04/23 11:50pm 1.6ft 16s 6s 11 13 mph 1013.9mb 76f 76f
11:20pm  -   -   -  11 13 mph 1014.1mb 76f 76f
10:50pm 1.6ft 15s 7s 9 11 mph 1014.4mb 76f 76f
10:20pm  -   -   -  11
mph
1014.4mb 76f 76f
9:50pm 1.6ft 16s 8s 11
mph
1014.2mb 77f 76f
9:20pm  -   -   -  11
mph
1014.1mb 77f 76f
8:50pm 1.6ft 15s 7s 9 11 mph 1014mb 77f 76f
8:20pm  -   -   -  7 9 mph 1014.2mb 77f 77f
7:50pm 1.6ft 15s 5s 4 7 mph 1013.9mb 77f 77f
7:20pm  -   -   -  4 7 mph 1013.7mb 77f 77f
6:50pm 1.6ft 12s 5s 7 9 mph 1013.7mb 77f 77f
6:20pm  -   -   -  11 13 mph 1013.5mb 77f 77f
5:50pm 1.6ft 9s 5s 11 13 mph 1013.5mb 77f 77f
5:20pm  -   -   -  11
mph
1013.4mb 77f 76f
4:50pm 1.6ft 10s 4s 7 9 mph 1013.2mb 77f 76f
4:20pm  -   -   -  7 9 mph 1013.5mb 77f 76f
3:50pm 2ft 11s 4s 7 9 mph 1013.7mb 77f 75f
3:20pm  -   -   -  9 11 mph 1014.1mb 77f 75f
2:50pm 2ft 9s 4s 9 11 mph 1014.1mb 77f 75f
2:20pm  -   -   -  9
mph
1014.4mb 76f 74f
1:50pm 2ft 9s 4s 7 9 mph 1014.7mb 76f 74f
1:20pm  -   -   -  7 9 mph 1015.3mb 76f 72f
12:50pm 2ft 10s 4s 9
mph
1015.7mb 76f 71f
12:20pm  -   -   -  25 29 mph 1015.1mb 76f 72f
11:20am  -   -   -  7 9 mph 1015.4mb 76f 76f
10:50am 1.6ft 9s 4s 7 9 mph 1015.6mb 76f 77f
10:20am  -   -   -  4 7 mph 1015mb 76f 76f
9:50am 1.6ft 8s 4s 7
mph
1015.2mb 76f 76f
9:20am  -   -   -  9 11 mph 1015.1mb 76f 76f
8:50am 1.6ft 8s 4s 7 9 mph 1015mb 76f 76f
8:20am  -   -   -  7
mph
1014.7mb 76f 76f
7:50am 2ft 9s 4s 7 9 mph 1014.5mb 76f 76f
7:20am  -   -   -  7
mph
1014.5mb 76f 75f
6:50am 2ft 13s 4s 7
mph
1014.3mb 76f 75f
6:20am  -   -   -  9
mph
1014.2mb 76f 76f
5:50am 2ft 9s 4s 11
mph
1014.2mb 76f 76f
5:20am  -   -   -  11 13 mph 1014.2mb 76f 76f
4:50am 1.6ft 9s 5s 11 13 mph 1014.1mb 76f 76f
4:20am  -   -   -  11
mph
1014.1mb 76f 76f
3:50am 1.6ft 12s 6s 11 13 mph 1014.2mb 76f 76f
3:20am  -   -   -  11 13 mph 1014.2mb 77f 76f
2:50am 1.6ft 12s 6s 9 11 mph 1014.2mb 77f 76f
2:20am  -   -   -  7 9 mph 1014.6mb 77f 76f
1:50am 1.6ft 11s 6s 7
mph
1014.9mb 77f 76f
1:20am  -   -   -  7
mph
1015.3mb 77f 76f
12:50am 1.6ft 8s 6s 2 4 mph 1015.3mb 77f 76f
12:20am  -   -   -  2 4 mph 1015.3mb 77f 76f
Wed 04/22 11:50pm 1.6ft 11s 6s 2 4 mph 1015.4mb 77f 76f
11:20pm  -   -   -  2
mph
1015.7mb 77f 77f
10:50pm 1.6ft 8s 5s 2 4 mph 1015.5mb 77f 77f
10:20pm  -   -   -  4
mph
1015.5mb 77f 77f
9:50pm 1.6ft 11s 5s 4
mph
1015.4mb 77f 77f
9:20pm  -   -   -  4 7 mph 1015.4mb 78f 77f
8:50pm 2ft 11s 5s 4 7 mph 1015.1mb 78f 77f
8:20pm  -   -   -  4 7 mph 1014.7mb 78f 77f
7:50pm 1.6ft 13s 5s 7
mph
1014.8mb 78f 77f
7:20pm  -   -   -  4 7 mph 1014.6mb 78f 77f
6:50pm 2ft 5s 5s 7 9 mph 1014.4mb 78f 77f
6:20pm  -   -   -  4 7 mph 1014.6mb 77f 77f
5:50pm 2ft 5s 5s 7
mph
1014.8mb 78f 78f
5:20pm  -   -   -  4 7 mph 1014.9mb 78f 78f
4:50pm 2.5ft 5s 5s 7 9 mph 1015.1mb 78f 78f
4:20pm  -   -   -  9 11 mph 1015.3mb 78f 77f